Time;durP1;ratioP1;P1;durP2;ratioP2;P2;SDS_P1;SDS_P2;PMS_P1;PMS_P2;Temp;Humidity;BMP_temperature;BMP_pressure;BME280_temperature;BME280_humidity;BME280_pressure;Samples;Min_cycle;Max_cycle;Signal;HPM_P1;HPM_P2
2022/06/06 00:01:42;;;;;;;5.70;3.40;;;18.40;99.90;;;19.02;nan;100653.22;4955109;29;20644;-62
2022/06/06 00:04:10;;;;;;;3.90;3.03;;;18.50;99.90;;;19.05;nan;100647.63;4952935;28;20636;-63
2022/06/06 00:06:39;;;;;;;5.77;3.50;;;18.50;99.90;;;19.20;nan;100638.88;4953845;28;20656;-64
2022/06/06 00:09:11;;;;;;;3.37;3.07;;;18.70;99.90;;;19.23;nan;100650.91;4952491;28;20703;-64
2022/06/06 00:11:39;;;;;;;3.00;2.80;;;18.60;99.90;;;19.25;nan;100652.41;4955044;29;20660;-64
2022/06/06 00:14:08;;;;;;;4.20;3.80;;;18.70;99.90;;;19.30;nan;100654.56;4954808;28;21014;-64
2022/06/06 00:16:35;;;;;;;3.47;3.17;;;18.70;99.90;;;19.38;nan;100654.59;4952909;28;20646;-63
2022/06/06 00:19:07;;;;;;;4.03;3.70;;;18.80;99.90;;;19.55;nan;100647.47;4953326;28;20698;-62
2022/06/06 00:21:34;;;;;;;4.07;3.73;;;19.00;99.90;;;19.60;nan;100653.91;4955099;28;20632;-64
2022/06/06 00:24:04;;;;;;;3.50;3.20;;;19.00;99.90;;;19.55;nan;100644.84;4953922;28;20627;-64
2022/06/06 00:26:33;;;;;;;3.50;3.20;;;19.00;99.90;;;19.42;nan;100645.34;4953353;28;20659;-62
2022/06/06 00:29:00;;;;;;;2.17;2.07;;;18.80;99.90;;;19.23;nan;100641.16;4947375;28;20640;-63
2022/06/06 00:37:02;;;;;;;3.50;3.20;;;18.70;99.90;;;19.34;nan;100643.50;4949055;28;20668;-64
2022/06/06 00:39:29;;;;;;;4.00;3.70;;;18.70;99.90;;;19.36;nan;100651.28;4949426;29;21214;-64
2022/06/06 00:41:57;;;;;;;3.70;3.40;;;18.80;99.90;;;19.42;nan;100648.00;4953471;28;21185;-63
2022/06/06 00:44:32;;;;;;;3.87;2.97;;;18.80;99.90;;;19.56;nan;100649.94;4954109;28;20640;-63
2022/06/06 00:47:24;;;;;;;3.93;3.00;;;19.00;99.90;;;19.57;nan;100643.66;4949176;28;20671;-63
2022/06/06 00:49:58;;;;;;;4.43;4.03;;;19.00;99.90;;;19.54;nan;100643.16;4943121;28;21213;-63
2022/06/06 00:52:34;;;;;;;3.47;3.23;;;18.90;99.90;;;19.52;nan;100639.88;4950776;29;20671;-65
2022/06/06 00:55:08;;;;;;;4.43;3.97;;;18.90;99.90;;;19.49;nan;100637.53;4951201;28;20635;-62
2022/06/06 00:57:45;;;;;;;4.37;3.67;;;18.90;99.90;;;19.45;nan;100638.88;4951730;29;20627;-64
2022/06/06 01:00:16;;;;;;;3.77;3.47;;;18.90;99.90;;;19.54;nan;100637.88;4951470;28;20638;-63
2022/06/06 01:02:48;;;;;;;4.23;3.70;;;19.00;99.90;;;19.50;nan;100629.44;4948407;28;20671;-62
2022/06/06 01:05:16;;;;;;;4.33;3.70;;;19.00;99.90;;;19.54;nan;100624.63;4935690;29;20660;-64
2022/06/06 01:07:44;;;;;;;4.93;4.37;;;18.90;99.90;;;19.46;nan;100627.31;4940807;28;20636;-63
2022/06/06 01:10:12;;;;;;;3.77;3.40;;;18.90;99.90;;;19.39;nan;100626.31;4952851;28;21020;-64
2022/06/06 01:12:40;;;;;;;3.90;3.50;;;18.70;99.90;;;19.25;nan;100622.50;4950308;28;20677;-64
2022/06/06 01:15:10;;;;;;;4.40;4.00;;;18.60;99.90;;;19.14;nan;100614.91;4951407;28;20635;-63
2022/06/06 01:17:43;;;;;;;4.40;3.63;;;18.50;99.90;;;19.08;nan;100616.38;4950239;28;20624;-64
2022/06/06 01:20:29;;;;;;;5.73;4.13;;;18.40;99.90;;;19.00;nan;100610.25;4951450;28;20624;-64
2022/06/06 01:23:36;;;;;;;5.07;3.93;;;18.40;99.90;;;19.06;nan;100612.25;4933397;29;20759;-64
2022/06/06 01:26:32;;;;;;;3.37;3.07;;;18.50;99.90;;;18.97;nan;100613.25;4936171;28;20684;-64
2022/06/06 01:29:14;;;;;;;4.07;3.67;;;18.40;99.90;;;18.90;nan;100609.59;4952237;28;20639;-64
2022/06/06 01:31:51;;;;;;;7.50;4.27;;;18.30;99.90;;;18.92;nan;100611.09;4950934;29;20627;-62
2022/06/06 01:34:33;;;;;;;3.63;3.20;;;18.30;99.90;;;18.88;nan;100615.06;4945844;28;20672;-64
2022/06/06 01:37:00;;;;;;;4.90;4.30;;;18.30;99.90;;;18.83;nan;100611.22;4950349;28;20671;-64
2022/06/06 01:39:31;;;;;;;3.77;3.47;;;18.20;99.90;;;18.85;nan;100609.25;4950608;29;20621;-63
2022/06/06 01:42:23;;;;;;;5.23;3.17;;;18.20;99.90;;;18.90;nan;100609.59;4950848;29;20620;-64
2022/06/06 01:45:07;;;;;;;4.07;3.67;;;18.30;99.90;;;18.92;nan;100604.97;4950954;29;21040;-65
2022/06/06 01:47:41;;;;;;;4.70;3.83;;;18.30;99.90;;;18.83;nan;100601.47;4951625;28;20651;-65
2022/06/06 01:50:09;;;;;;;4.30;3.90;;;18.20;99.90;;;18.85;nan;100606.59;4949397;28;20644;-64
2022/06/06 01:52:51;;;;;;;5.53;3.90;;;18.20;99.90;;;18.81;nan;100598.19;4950070;28;21241;-63
2022/06/06 01:55:18;;;;;;;4.13;3.73;;;18.20;99.90;;;18.81;nan;100598.19;4951367;28;20659;-65
2022/06/06 01:57:48;;;;;;;3.83;3.50;;;18.20;99.90;;;18.80;nan;100593.91;4950380;28;20640;-64
2022/06/06 02:00:16;;;;;;;3.57;3.33;;;18.20;99.90;;;18.86;nan;100600.34;4949502;29;20628;-62
2022/06/06 02:02:44;;;;;;;4.63;3.57;;;18.20;99.90;;;18.82;nan;100597.22;4951407;28;20636;-65
2022/06/06 02:05:13;;;;;;;3.43;3.13;;;18.20;99.90;;;18.73;nan;100598.19;4952131;28;20668;-63
2022/06/06 02:07:42;;;;;;;4.57;3.70;;;18.20;99.90;;;18.66;nan;100613.03;4951263;28;20691;-64
2022/06/06 02:10:12;;;;;;;12.57;3.83;;;18.00;99.90;;;18.61;nan;100606.59;4949510;29;20632;-64
2022/06/06 02:12:40;;;;;;;4.57;3.50;;;18.00;99.90;;;18.42;nan;100608.47;4949784;28;20659;-65
2022/06/06 02:15:11;;;;;;;4.60;4.17;;;17.80;99.90;;;18.41;nan;100601.56;4950320;28;21220;-63
2022/06/06 02:17:38;;;;;;;4.53;4.13;;;17.80;99.90;;;18.45;nan;100604.72;4949075;28;20632;-64
2022/06/06 02:20:07;;;;;;;5.33;4.50;;;17.90;99.90;;;18.44;nan;100606.53;4951138;28;20632;-65
2022/06/06 02:22:35;;;;;;;4.30;3.90;;;17.80;99.90;;;18.41;nan;100600.72;4949092;28;20644;-63
2022/06/06 02:25:04;;;;;;;4.23;3.83;;;17.80;99.90;;;18.40;nan;100614.91;4943632;28;20655;-64
2022/06/06 02:27:31;;;;;;;6.13;3.80;;;17.80;99.90;;;18.34;nan;100615.53;4952295;28;20655;-64
2022/06/06 02:29:58;;;;;;;5.97;5.00;;;17.80;99.90;;;18.30;nan;100622.97;4952249;28;20675;-64
2022/06/06 02:32:25;;;;;;;5.30;4.53;;;17.70;99.90;;;18.25;nan;100625.25;4952473;28;20672;-64
2022/06/06 02:34:52;;;;;;;5.27;3.90;;;17.70;99.90;;;18.30;nan;100625.63;4951254;28;20640;-63
2022/06/06 02:37:19;;;;;;;5.80;3.67;;;17.70;99.90;;;18.39;nan;100629.13;4950655;28;20620;-65
2022/06/06 02:39:46;;;;;;;6.87;4.40;;;17.80;99.90;;;18.38;nan;100625.63;4947721;28;20628;-64
2022/06/06 02:42:13;;;;;;;5.60;4.57;;;17.80;99.90;;;18.41;nan;100616.56;4951256;28;20694;-64
2022/06/06 02:44:40;;;;;;;6.47;4.83;;;17.80;99.90;;;18.42;nan;100624.31;4950877;28;20641;-63
2022/06/06 02:47:07;;;;;;;4.30;3.90;;;17.80;99.90;;;18.26;nan;100620.81;4952493;29;20648;-63
2022/06/06 02:49:35;;;;;;;5.93;4.00;;;17.80;99.90;;;18.30;nan;100620.34;4950321;28;21041;-64
2022/06/06 02:52:04;;;;;;;3.83;3.53;;;17.80;99.90;;;18.07;nan;100627.19;4951014;28;21108;-64
2022/06/06 02:54:31;;;;;;;6.60;3.93;;;17.50;99.90;;;18.05;nan;100623.88;4949140;28;21306;-65
2022/06/06 02:56:59;;;;;;;4.80;4.00;;;17.50;99.90;;;18.05;nan;100630.97;4951055;28;21213;-64
2022/06/06 02:59:28;;;;;;;5.87;4.30;;;17.40;99.90;;;18.05;nan;100633.59;4949268;28;20709;-63
2022/06/06 03:01:55;;;;;;;4.53;3.80;;;17.50;99.90;;;18.01;nan;100624.34;4951728;28;20628;-63
2022/06/06 03:04:22;;;;;;;4.17;3.77;;;17.40;99.90;;;18.02;nan;100615.41;4950009;28;20632;-64
2022/06/06 03:07:23;;;;;;;7.40;3.87;;;17.40;99.90;;;17.98;nan;100627.28;4951685;28;20640;-64
2022/06/06 03:10:08;;;;;;;5.00;4.50;;;17.40;99.90;;;18.01;nan;100625.19;4946077;29;20635;-64
2022/06/06 03:13:00;;;;;;;5.50;4.37;;;17.40;99.90;;;17.99;nan;100627.16;4953145;29;20671;-64
2022/06/06 03:15:36;;;;;;;5.47;3.60;;;17.40;99.90;;;17.99;nan;100632.44;4951079;28;20672;-64
2022/06/06 03:21:46;;;;;;;4.97;4.47;;;17.30;99.90;;;17.93;nan;100625.13;4953634;29;21220;-65
2022/06/06 03:24:31;;;;;;;4.27;3.80;;;17.30;99.90;;;17.95;nan;100627.63;4905037;28;20643;-64
2022/06/06 03:27:25;;;;;;;5.63;3.87;;;17.30;99.90;;;17.94;nan;100625.94;4951905;28;20679;-65
2022/06/06 03:30:25;;;;;;;7.93;4.20;;;17.40;99.90;;;17.93;nan;100621.66;4950793;28;20639;-63
2022/06/06 03:33:00;;;;;;;5.80;4.80;;;17.30;99.90;;;17.96;nan;100632.72;4946981;29;20663;-65
2022/06/06 03:35:52;;;;;;;5.83;5.23;;;17.40;99.90;;;17.92;nan;100626.13;4953614;28;20786;-64
2022/06/06 03:38:34;;;;;;;5.40;4.87;;;17.30;99.90;;;17.93;nan;100630.38;4953318;28;20636;-64
2022/06/06 03:41:23;;;;;;;5.60;5.10;;;17.40;99.90;;;18.03;nan;100633.75;4952276;29;20627;-64
2022/06/06 03:44:27;;;;;;;6.83;5.40;;;17.50;99.90;;;18.05;nan;100634.44;4951259;29;20651;-63
2022/06/06 03:47:39;;;;;;;6.57;5.50;;;17.50;99.90;;;18.07;nan;100640.38;4951714;28;20675;-63
2022/06/06 03:50:19;;;;;;;5.80;5.03;;;17.50;99.90;;;18.13;nan;100645.03;4950085;28;20651;-65
2022/06/06 03:53:09;;;;;;;6.10;5.50;;;17.60;99.90;;;18.21;nan;100652.13;4952675;28;20671;-64
2022/06/06 03:55:47;;;;;;;6.83;5.57;;;17.70;99.90;;;18.24;nan;100655.31;4948382;28;20664;-64
2022/06/06 03:58:17;;;;;;;5.60;4.63;;;17.70;99.90;;;18.34;nan;100652.53;4953093;28;20627;-63
2022/06/06 04:00:46;;;;;;;5.53;5.00;;;17.70;99.90;;;18.34;nan;100657.81;4952573;28;20639;-64
2022/06/06 04:03:16;;;;;;;6.77;4.93;;;17.80;99.90;;;18.37;nan;100660.97;4933356;29;20636;-64
2022/06/06 04:05:44;;;;;;;5.57;4.93;;;17.80;99.90;;;18.45;nan;100665.50;4934639;29;20781;-65
2022/06/06 04:08:11;;;;;;;4.83;4.30;;;17.90;99.90;;;18.46;nan;100673.25;4935619;29;20640;-63
2022/06/06 04:11:03;;;;;;;5.87;4.47;;;17.90;99.90;;;18.38;nan;100670.53;4944069;28;20640;-64
2022/06/06 04:14:11;;;;;;;6.87;5.07;;;17.90;99.90;;;18.27;nan;100665.53;4937120;28;20661;-63
2022/06/06 04:17:35;;;;;;;4.63;4.20;;;17.80;99.90;;;18.32;nan;100662.44;4952770;28;20670;-63
2022/06/06 04:20:23;;;;;;;13.17;4.90;;;17.80;99.90;;;18.30;nan;100665.25;4950232;28;20644;-63
2022/06/06 04:23:22;;;;;;;5.40;4.53;;;17.80;99.90;;;18.36;nan;100664.59;4952302;29;20641;-63
2022/06/06 04:26:34;;;;;;;5.50;3.87;;;17.80;99.90;;;18.35;nan;100676.16;4934642;29;20661;-66
2022/06/06 04:29:40;;;;;;;7.13;5.30;;;17.80;99.90;;;18.42;nan;100679.00;4932243;28;20644;-65
2022/06/06 04:32:47;;;;;;;5.70;4.30;;;17.90;99.90;;;18.43;nan;100676.19;4949727;29;20624;-66
2022/06/06 04:35:43;;;;;;;4.80;3.97;;;17.90;99.90;;;18.42;nan;100676.34;4930798;28;21260;-64
2022/06/06 04:38:47;;;;;;;5.90;4.20;;;17.90;99.90;;;18.36;nan;100676.97;4953611;28;20620;-64
2022/06/06 04:41:36;;;;;;;4.97;4.03;;;17.70;99.90;;;18.50;nan;100669.31;4951474;29;20624;-64
2022/06/06 04:44:34;;;;;;;5.07;4.57;;;17.90;99.90;;;18.68;nan;100661.25;4952801;28;21221;-64
2022/06/06 04:47:36;;;;;;;5.63;4.77;;;18.10;99.90;;;18.93;nan;100670.88;4954844;28;20662;-63
2022/06/06 04:50:17;;;;;;;3.60;3.30;;;18.50;99.90;;;19.22;nan;100659.84;4949731;28;20654;-64
2022/06/06 04:52:52;;;;;;;4.77;4.23;;;18.80;99.90;;;19.69;nan;100663.50;4952010;28;20640;-65
2022/06/06 04:55:20;;;;;;;4.97;4.47;;;19.20;99.90;;;19.98;nan;100668.22;4952291;29;20684;-64
2022/06/06 04:57:54;;;;;;;5.90;4.67;;;19.60;99.90;;;20.26;nan;100674.78;4951975;29;20983;-64
2022/06/06 05:00:24;;;;;;;5.40;4.50;;;19.90;99.90;;;20.57;nan;100677.50;4953085;28;20612;-64
2022/06/06 05:02:51;;;;;;;5.20;4.70;;;20.20;99.90;;;20.82;nan;100671.03;4952171;28;20616;-65
2022/06/06 05:05:18;;;;;;;4.70;4.20;;;20.50;99.90;;;20.99;nan;100671.75;4952405;28;20660;-66
2022/06/06 05:08:33;;;;;;;5.87;5.07;;;20.60;99.90;;;21.14;nan;100664.72;4941649;28;20716;-65
2022/06/06 05:11:20;;;;;;;5.70;4.47;;;20.60;99.90;;;21.32;nan;100660.75;4926020;28;20660;-63
2022/06/06 05:14:11;;;;;;;4.93;4.43;;;20.90;99.90;;;21.51;nan;100639.00;4945096;29;21215;-65
2022/06/06 05:17:19;;;;;;;5.30;4.80;;;21.00;99.90;;;21.76;nan;100650.22;4933221;29;20640;-68
2022/06/06 05:20:15;;;;;;;5.47;4.97;;;21.30;99.90;;;22.03;nan;100657.59;4947453;28;20636;-67
2022/06/06 05:22:45;;;;;;;4.83;4.43;;;21.60;99.90;;;22.39;nan;100652.34;4946469;28;20664;-66
2022/06/06 05:25:40;;;;;;;6.20;4.53;;;22.00;99.90;;;22.78;nan;100650.19;4951706;28;20679;-66
2022/06/06 05:28:59;;;;;;;6.33;5.10;;;22.40;99.90;;;23.21;nan;100664.31;4951058;28;21014;-65
2022/06/06 05:31:41;;;;;;;4.83;4.43;;;22.80;99.90;;;23.71;nan;100664.13;4949000;28;20643;-65
2022/06/06 05:34:17;;;;;;;3.93;3.63;;;23.40;99.90;;;24.08;nan;100665.63;4950947;28;20682;-65
2022/06/06 05:36:59;;;;;;;3.87;3.57;;;23.80;99.90;;;24.33;nan;100682.78;4951331;28;20671;-66
2022/06/06 05:39:45;;;;;;;7.03;4.93;;;24.00;99.90;;;24.53;nan;100669.53;4951868;28;20616;-63
2022/06/06 05:43:03;;;;;;;4.03;3.63;;;24.20;99.90;;;24.90;nan;100677.06;4950982;28;20629;-65
2022/06/06 05:46:00;;;;;;;3.50;3.30;;;24.50;99.90;;;24.93;nan;100671.31;4946819;29;20641;-67
2022/06/06 05:48:40;;;;;;;4.33;4.03;;;24.50;99.90;;;24.81;nan;100677.47;4934250;28;20631;-64
2022/06/06 05:51:47;;;;;;;4.47;4.07;;;24.40;99.90;;;24.45;nan;100689.19;4950596;28;21166;-67
2022/06/06 05:54:48;;;;;;;3.90;3.70;;;24.00;99.90;;;24.03;nan;100689.34;4950943;28;20705;-65
2022/06/06 05:57:34;;;;;;;3.60;3.40;;;23.50;99.90;;;23.55;nan;100693.69;4951005;28;20652;-63
2022/06/06 06:00:18;;;;;;;4.00;3.73;;;23.00;99.90;;;23.31;nan;100695.94;4950933;29;20630;-68
2022/06/06 06:03:36;;;;;;;3.83;3.53;;;22.70;99.90;;;23.15;nan;100708.47;4949210;28;20636;-63
2022/06/06 06:06:31;;;;;;;4.70;3.50;;;22.60;99.90;;;22.66;nan;100704.84;4952063;28;21003;-65
2022/06/06 06:09:27;;;;;;;3.93;3.60;;;22.20;99.90;;;22.95;nan;100704.81;4952290;29;21176;-64
2022/06/06 06:12:25;;;;;;;5.60;3.50;;;22.30;99.90;;;22.83;nan;100703.63;4948057;29;20631;-65
2022/06/06 06:15:28;;;;;;;4.07;3.60;;;22.30;99.90;;;22.82;nan;100709.97;4949271;28;20682;-65
2022/06/06 06:17:56;;;;;;;4.00;3.60;;;22.30;99.90;;;22.34;nan;100713.19;4950695;28;20985;-65
2022/06/06 06:20:31;;;;;;;5.13;3.87;;;21.90;99.90;;;22.12;nan;100716.78;4949940;28;20619;-66
2022/06/06 06:23:06;;;;;;;4.13;3.63;;;21.70;99.90;;;22.35;nan;100717.53;4950461;28;20717;-67
2022/06/06 06:25:36;;;;;;;4.03;3.73;;;21.80;99.90;;;23.00;nan;100710.38;4943768;28;20672;-64
2022/06/06 06:28:10;;;;;;;3.40;3.10;;;22.50;99.90;;;23.62;nan;100694.59;4949999;28;21294;-64
2022/06/06 06:31:19;;;;;;;4.60;4.23;;;23.20;99.90;;;24.61;nan;100704.03;4948160;28;20651;-63
2022/06/06 06:34:03;;;;;;;4.40;4.00;;;24.30;99.90;;;25.25;nan;100712.47;4925310;29;20673;-67
2022/06/06 06:36:41;;;;;;;6.33;4.47;;;25.00;99.90;;;25.66;nan;100718.47;4936458;28;21022;-66
2022/06/06 06:39:58;;;;;;;4.03;3.63;;;25.40;99.90;;;25.85;nan;100719.50;4949055;28;20704;-64
2022/06/06 06:42:59;;;;;;;4.40;4.00;;;25.70;99.90;;;24.95;nan;100724.50;4945913;28;20632;-65
2022/06/06 06:45:44;;;;;;;7.53;4.10;;;24.90;99.90;;;24.63;nan;100726.00;4940234;29;21259;-66
2022/06/06 06:48:29;;;;;;;4.37;3.97;;;24.00;99.90;;;25.27;nan;100724.59;4951569;28;21017;-65
2022/06/06 06:51:33;;;;;;;4.50;3.83;;;24.60;99.90;;;26.87;nan;100739.22;4949132;28;20735;-63
2022/06/06 06:54:18;;;;;;;3.00;2.20;;;26.30;99.70;;;27.49;nan;100736.56;4935560;29;20672;-65
2022/06/06 06:57:22;;;;;;;3.50;3.20;;;27.40;96.70;;;27.96;nan;100728.97;4947144;29;21030;-65
2022/06/06 07:00:06;;;;;;;4.30;3.90;;;27.60;95.50;;;27.07;nan;100742.59;4954609;28;20624;-64
2022/06/06 07:10:08;;;;;;;4.13;3.83;;;27.60;94.90;;;28.56;nan;100744.22;4946994;28;21014;-66
2022/06/06 07:12:41;;;;;;;4.30;3.90;;;28.00;94.40;;;29.13;nan;100745.59;4953876;28;20723;-66
2022/06/06 07:15:26;;;;;;;5.10;3.80;;;28.80;92.50;;;28.79;nan;100741.69;4944835;28;21284;-64
2022/06/06 07:18:00;;;;;;;4.63;4.07;;;28.40;92.60;;;27.90;nan;100737.91;4945611;28;21020;-67
2022/06/06 07:20:28;;;;;;;4.80;4.20;;;27.50;93.20;;;26.67;nan;100738.44;4952831;29;20631;-66
2022/06/06 07:23:11;;;;;;;4.17;3.87;;;26.20;94.80;;;25.59;nan;100733.69;4953523;28;20651;-64
2022/06/06 07:25:42;;;;;;;4.77;4.27;;;25.10;96.70;;;24.67;nan;100738.75;4946001;28;21053;-66
2022/06/06 07:28:16;;;;;;;5.20;4.27;;;24.10;98.90;;;24.78;nan;100733.88;4953651;28;20624;-67
2022/06/06 07:31:22;;;;;;;4.60;4.20;;;24.00;99.90;;;24.19;nan;100729.03;4951122;29;20625;-62
2022/06/06 07:34:14;;;;;;;5.50;4.37;;;23.70;99.90;;;23.42;nan;100728.25;4952524;29;20656;-65
2022/06/06 07:37:10;;;;;;;4.20;3.90;;;23.10;99.90;;;23.81;nan;100733.88;4966476;28;20658;-68
2022/06/06 07:40:14;;;;;;;3.97;3.67;;;23.20;99.90;;;25.97;nan;100734.69;4956214;28;20652;-63
2022/06/06 07:43:00;;;;;;;4.40;3.80;;;25.20;99.90;;;27.35;nan;100740.41;4956773;28;20623;-65
2022/06/06 07:45:45;;;;;;;7.50;3.90;;;27.20;95.20;;;26.17;nan;100726.69;4954023;29;20660;-65
2022/06/06 07:48:40;;;;;;;3.70;3.27;;;26.00;96.00;;;25.26;nan;100727.44;4953439;29;20718;-67
2022/06/06 07:51:39;;;;;;;4.13;3.83;;;24.90;97.40;;;26.65;nan;100722.59;4954526;28;21080;-64
2022/06/06 07:54:37;;;;;;;3.70;3.40;;;25.90;96.80;;;28.91;nan;100722.97;4940996;28;20687;-65
2022/06/06 07:57:21;;;;;;;4.30;3.80;;;28.40;93.50;;;31.39;nan;100731.81;4944284;29;21055;-66
2022/06/06 08:00:10;;;;;;;3.90;3.60;;;30.90;90.20;;;34.05;nan;100727.25;4950215;29;20607;-65
2022/06/06 08:03:09;;;;;;;3.20;2.90;;;33.70;78.40;;;35.62;nan;100722.03;4942927;28;21428;-65
2022/06/06 08:06:10;;;;;;;2.70;2.50;;;35.50;66.70;;;34.58;nan;100712.59;4933756;29;21082;-66
2022/06/06 08:09:01;;;;;;;2.17;2.07;;;34.90;61.60;;;34.53;nan;100701.75;4942376;28;20644;-65
2022/06/06 08:11:37;;;;;;;3.07;2.97;;;34.30;62.80;;;35.09;nan;100707.06;4935632;29;20616;-69
2022/06/06 08:14:17;;;;;;;2.97;2.77;;;34.70;62.30;;;36.36;nan;100702.28;4964558;28;20675;-64
2022/06/06 08:17:02;;;;;;;3.20;3.00;;;35.90;60.20;;;35.75;nan;100707.06;4945158;28;20664;-64
2022/06/06 08:19:50;;;;;;;2.97;2.87;;;35.90;57.40;;;33.90;nan;100708.16;4952100;28;20628;-67
2022/06/06 08:22:18;;;;;;;2.80;2.70;;;33.60;58.90;;;33.52;nan;100698.44;4948998;28;20632;-67
2022/06/06 08:24:53;;;;;;;2.80;2.70;;;32.90;60.70;;;33.26;nan;100683.88;4933346;29;21438;-65
2022/06/06 08:27:28;;;;;;;3.33;3.13;;;32.90;60.60;;;32.06;nan;100689.50;4947494;28;20654;-64
2022/06/06 08:29:55;;;;;;;3.07;2.97;;;31.80;62.00;;;31.46;nan;100688.56;4949557;28;20647;-68
2022/06/06 08:32:22;;;;;;;3.07;2.90;;;31.10;63.30;;;33.50;nan;100679.75;4949641;28;20632;-66
2022/06/06 08:34:49;;;;;;;3.20;2.93;;;32.80;62.40;;;34.43;nan;100697.09;4951580;28;21277;-62
2022/06/06 08:37:51;;;;;;;2.70;2.60;;;34.20;58.30;;;33.46;nan;100683.19;4947565;28;21060;-65
2022/06/06 08:40:33;;;;;;;2.90;2.37;;;33.20;57.70;;;31.79;nan;100672.34;4949760;29;20624;-65
2022/06/06 08:43:47;;;;;;;2.70;2.60;;;31.70;59.60;;;30.96;nan;100672.34;4951654;28;20628;-64
2022/06/06 08:46:40;;;;;;;2.60;2.50;;;31.60;60.10;;;31.22;nan;100679.78;4949091;29;20660;-63
2022/06/06 08:52:47;;;;;;;2.60;2.50;;;31.50;60.90;;;33.40;nan;100684.22;4951462;29;20633;-65
2022/06/06 08:55:26;;;;;;;2.40;2.20;;;32.80;58.70;;;;;;4950214;29;20734;-64
2022/06/06 08:58:05;;;;;;;2.47;2.37;;;34.90;56.50;;;;;;4949798;28;20635;-64
2022/06/06 09:01:03;;;;;;;2.40;2.30;;;36.90;53.40;;;;;;4950170;29;20715;-65
2022/06/06 09:03:48;;;;;;;2.27;2.17;;;39.00;50.30;;;;;;4949097;28;21270;-66
2022/06/06 09:07:11;;;;;;;2.37;2.17;;;40.70;48.10;;;;;;4948144;28;21040;-63
2022/06/06 09:10:19;;;;;;;2.03;2.03;;;43.60;45.30;;;;;;4927794;29;21300;-62
2022/06/06 09:12:52;;;;;;;2.20;2.10;;;45.90;42.10;;;;;;4926170;29;21222;-65
2022/06/06 09:16:00;;;;;;;2.13;2.03;;;47.00;39.70;;;;;;4946513;28;20680;-64
2022/06/06 09:18:36;;;;;;;2.07;2.07;;;48.40;38.90;;;;;;4933215;29;20647;-64
2022/06/06 09:21:36;;;;;;;2.20;2.10;;;48.20;37.60;;;;;;4950225;28;20645;-64
2022/06/06 09:24:14;;;;;;;1.90;1.90;;;47.60;37.00;;;;;;4948695;28;20635;-64
2022/06/06 09:27:04;;;;;;;1.77;1.77;;;46.60;37.00;;;;;;4951764;28;20652;-65
2022/06/06 09:30:08;;;;;;;2.50;2.30;;;47.30;36.80;;;;;;4951321;28;20732;-64
2022/06/06 09:33:02;;;;;;;2.30;2.10;;;49.20;36.00;;;;;;4952554;28;20730;-64
2022/06/06 09:36:03;;;;;;;1.70;1.70;;;49.60;35.00;;;;;;4951673;29;20678;-67
2022/06/06 09:38:53;;;;;;;1.93;1.93;;;50.10;34.80;;;;;;4943716;28;20730;-65
2022/06/06 09:41:54;;;;;;;2.00;1.90;;;50.50;34.50;;;;;;4950977;29;20642;-66
2022/06/06 09:44:57;;;;;;;2.10;2.00;;;49.30;34.30;;;;;;4950697;28;20722;-65
2022/06/06 09:47:53;;;;;;;2.17;2.17;;;46.20;35.30;;;;;;4952973;28;20624;-66
2022/06/06 09:50:42;;;;;;;2.10;2.00;;;44.90;36.50;;;;;;4946279;28;21349;-65
2022/06/06 09:59:01;;;;;;;1.90;1.90;;;43.40;37.40;;;;;;4950990;28;20675;-68
2022/06/06 10:00:21;;;;;;;2.13;2.03;;;40.20;39.20;;;;;;4945104;28;20712;-66
2022/06/06 10:03:06;;;;;;;1.70;1.70;;;37.40;40.90;;;;;;4952735;28;20719;-65
2022/06/06 10:06:10;;;;;;;3.67;2.00;;;34.70;42.60;;;;;;4952781;28;20681;-67
2022/06/06 10:08:56;;;;;;;1.87;1.77;;;33.40;44.50;;;;;;4942781;28;20645;-67
2022/06/06 10:11:49;;;;;;;1.87;1.77;;;34.30;44.90;;;;;;4944256;28;20690;-64
2022/06/06 10:14:27;;;;;;;2.00;1.90;;;36.00;44.10;;;;;;4951304;28;20763;-66
2022/06/06 10:17:13;;;;;;;2.27;2.07;;;37.70;41.70;;;;;;4950704;28;20744;-65
2022/06/06 10:20:01;;;;;;;1.97;1.90;;;36.90;41.90;;;;;;4933339;28;20668;-65
2022/06/06 10:23:03;;;;;;;1.90;1.80;;;35.20;43.60;;;;;;4933999;29;20648;-64
2022/06/06 10:26:11;;;;;;;1.80;1.73;;;33.90;44.90;;;;;;4949803;28;20664;-66
2022/06/06 10:28:54;;;;;;;1.97;1.90;;;32.10;47.00;;;;;;4934175;28;20648;-64
2022/06/06 10:31:36;;;;;;;2.17;2.07;;;30.60;48.70;;;;;;4943903;28;20621;-64
2022/06/06 10:34:05;;;;;;;2.10;2.00;;;29.90;50.00;;;;;;4952610;28;20635;-63
2022/06/06 10:37:00;;;;;;;2.77;2.00;;;29.20;50.50;;;;;;4952589;28;20668;-66
2022/06/06 10:39:38;;;;;;;1.87;1.77;;;28.90;52.20;;;;;;4951568;28;20620;-66
2022/06/06 10:42:44;;;;;;;2.40;2.20;;;28.90;53.70;;;;;;4950915;29;20683;-66
2022/06/06 10:45:37;;;;;;;2.17;2.07;;;28.70;55.00;;;;;;4937987;28;20749;-65
2022/06/06 10:48:28;;;;;;;2.70;2.50;;;28.30;55.80;;;;;;4946260;29;20608;-65
2022/06/06 10:51:37;;;;;;;2.67;2.23;;;28.00;56.30;;;;;;4946114;28;20624;-66
2022/06/06 10:54:23;;;;;;;2.23;2.13;;;27.60;57.10;;;;;;4946715;28;20640;-65
2022/06/06 10:57:24;;;;;;;2.63;2.43;;;27.10;58.20;;;;;;4940792;28;21395;-62
2022/06/06 11:00:06;;;;;;;2.83;2.60;;;26.70;59.50;;;;;;4944441;29;20616;-67
2022/06/06 11:02:45;;;;;;;3.40;3.10;;;26.30;60.40;;;;;;4950383;28;21010;-66
2022/06/06 11:05:24;;;;;;;3.10;2.90;;;26.10;61.40;;;;;;4951554;29;21115;-66
2022/06/06 11:08:22;;;;;;;2.30;2.20;;;26.10;61.70;;;;;;4933563;29;20596;-65
2022/06/06 11:11:08;;;;;;;3.57;2.40;;;26.30;60.60;;;;;;4931745;29;20647;-64
2022/06/06 11:13:52;;;;;;;2.33;2.20;;;26.70;60.50;;;;;;4935371;28;20667;-68
2022/06/06 11:16:44;;;;;;;3.60;2.10;;;27.10;59.20;;;;;;4948010;28;21026;-67
2022/06/06 11:19:32;;;;;;;1.93;1.83;;;27.10;57.90;;;;;;4948632;28;20647;-65
2022/06/06 11:22:31;;;;;;;1.77;1.77;;;27.00;58.70;;;;;;4931082;29;20624;-66
2022/06/06 11:25:17;;;;;;;2.00;1.90;;;27.30;59.00;;;;;;4930586;29;20672;-67
2022/06/06 11:28:21;;;;;;;1.90;1.80;;;27.20;58.20;;;;;;4939778;28;20692;-63
2022/06/06 11:31:31;;;;;;;2.23;2.13;;;27.20;58.10;;;;;;4951713;29;21097;-66
2022/06/06 11:34:13;;;;;;;3.90;1.97;;;27.30;58.80;;;;;;4954951;29;20620;-66
2022/06/06 11:37:11;;;;;;;2.23;2.13;;;27.30;58.20;;;;;;4950012;28;20718;-66
2022/06/06 11:39:47;;;;;;;2.27;2.17;;;27.20;58.50;;;;;;4953666;29;21185;-66
2022/06/06 11:42:44;;;;;;;3.63;2.50;;;27.10;58.20;;;;;;4953623;28;20624;-66
2022/06/06 11:45:29;;;;;;;1.93;1.90;;;26.90;58.20;;;;;;4952618;28;20841;-63
2022/06/06 11:48:33;;;;;;;2.60;2.40;;;26.30;59.40;;;;;;4948495;29;21088;-66
2022/06/06 11:51:29;;;;;;;3.07;2.00;;;25.90;60.50;;;;;;4952982;28;20644;-66
2022/06/06 11:54:25;;;;;;;4.10;2.23;;;25.90;61.40;;;;;;4948121;29;20713;-64
2022/06/06 11:57:20;;;;;;;2.20;2.10;;;25.70;62.00;;;;;;4948233;28;20674;-65
2022/06/06 12:00:06;;;;;;;2.30;2.10;;;25.60;62.50;;;;;;4953776;29;20920;-65
2022/06/06 12:02:45;;;;;;;2.10;2.00;;;25.80;62.50;;;;;;4954077;28;21055;-65
2022/06/06 12:05:50;;;;;;;1.60;1.53;;;25.80;62.50;;;;;;4953694;29;20678;-68
2022/06/06 12:08:35;;;;;;;2.07;2.00;;;25.40;62.30;;;;;;4945428;28;21195;-64
2022/06/06 12:11:39;;;;;;;2.20;2.10;;;25.40;63.10;;;;;;4949546;29;20623;-64
2022/06/06 12:14:38;;;;;;;1.37;1.27;;;25.30;62.60;;;;;;4954484;28;20612;-67
2022/06/06 12:17:17;;;;;;;1.53;1.53;;;25.40;58.90;;;;;;4952419;28;20690;-66
2022/06/06 12:20:21;;;;;;;1.40;1.40;;;25.50;60.00;;;;;;4938474;28;20659;-65
2022/06/06 12:22:56;;;;;;;1.97;1.87;;;26.10;59.10;;;;;;4953584;28;20690;-66
2022/06/06 12:25:46;;;;;;;2.03;1.93;;;26.40;58.00;;;;;;4953613;29;20686;-64
2022/06/06 12:28:43;;;;;;;1.57;1.47;;;26.70;58.20;;;;;;4952414;28;20628;-66
2022/06/06 12:31:14;;;;;;;1.93;1.70;;;26.90;57.80;;;;;;4954184;28;20635;-65
2022/06/06 12:33:53;;;;;;;2.77;2.57;;;26.90;58.90;;;;;;4946122;28;20721;-65
2022/06/06 12:36:33;;;;;;;2.30;2.20;;;26.70;58.80;;;;;;4953371;28;20682;-65
2022/06/06 12:39:20;;;;;;;2.20;2.10;;;26.30;59.90;;;;;;4953147;29;21177;-65
2022/06/06 12:42:16;;;;;;;1.40;1.40;;;26.20;59.90;;;;;;4950545;28;20986;-65
2022/06/06 12:45:22;;;;;;;2.33;2.20;;;26.00;60.40;;;;;;4953376;29;20626;-64